Condizioni Attuali
Clear
Conditions



Pressione
1002.92 (hPa) - 29.62 (inHG)
Visibilità

10.0 (km) - 6.2 (miles)
   Temperatura
32  °C
90°F
18  °C
Punto Rug.
43  %
 Umidit√†
   Vento
14  km/h
8  kts
9  mph
4.0  m/s
   Direzione Vento
 90°
Esst
   Dati Aeroportuali
LIBP
Località Pescara International Airport 30 km (18.65 mi)
Metar :LIBP 031450Z AUTO 09008KT 9999 NCD 32/18 Q1003
Mon 3rd August 16:50 pm
   Raw Metar Info
Raw METAR is the most common format in the world for the transmission of observational weather data. It is highly standardized through the International Civil Aviation Organization (ICAO), which allows it to be understood throughout most of the world.
   API Info
Data Provided by
https://www.checkwx.com/weather/LIBP
   © Info
CSS/SVG/PHP scripts were developed by weather34.com for use in the weather34 template © 2015-2020

Guide Info provided by Metar-Wikipedia